createdAt,value
2023-03-26T00:01:19.900Z,58.42
2023-03-26T00:04:33.801Z,59.28
2023-03-26T00:07:48.438Z,64.21
2023-03-26T00:11:10.233Z,66.00
2023-03-26T00:14:30.048Z,64.02
2023-03-26T00:17:33.544Z,58.55
2023-03-26T00:20:48.174Z,56.10
2023-03-26T00:24:11.437Z,56.19
2023-03-26T00:27:02.144Z,58.91
2023-03-26T00:30:12.605Z,60.70
2023-03-26T00:33:22.139Z,65.36
2023-03-26T00:36:36.812Z,66.44
2023-03-26T00:39:57.511Z,62.36
2023-03-26T00:43:19.477Z,57.37
2023-03-26T00:46:36.753Z,56.63
2023-03-26T00:50:09.456Z,59.40
2023-03-26T00:53:23.806Z,61.09
2023-03-26T00:56:16.862Z,66.49
2023-03-26T00:59:27.634Z,64.84
2023-03-26T01:02:29.797Z,65.05
2023-03-26T01:05:22.077Z,61.74
2023-03-26T01:08:33.834Z,57.08
2023-03-26T01:11:34.568Z,56.82
2023-03-26T01:14:50.974Z,58.93
2023-03-26T01:17:55.827Z,61.41
2023-03-26T01:21:09.437Z,66.26
2023-03-26T01:24:24.202Z,65.99
2023-03-26T01:28:03.854Z,63.91
2023-03-26T01:31:37.453Z,61.14
2023-03-26T01:35:03.178Z,56.50
2023-03-26T02:07:48.427Z,65.69
2023-03-26T02:10:58.491Z,65.28
2023-03-26T02:14:19.596Z,61.59
2023-03-26T02:17:27.007Z,56.43
2023-03-26T02:20:49.427Z,57.05
2023-03-26T02:23:57.023Z,58.13
2023-03-26T02:26:53.869Z,60.29
2023-03-26T02:30:07.200Z,64.65
2023-03-26T02:33:08.369Z,66.41
2023-03-26T02:36:19.897Z,62.80
2023-03-26T02:39:23.968Z,57.47
2023-03-26T02:42:36.862Z,57.16
2023-03-26T02:45:34.655Z,59.29
2023-03-26T02:48:43.146Z,60.66
2023-03-26T02:52:06.811Z,65.84
2023-03-26T02:55:15.646Z,64.83
2023-03-26T02:58:47.918Z,62.88
2023-03-26T03:01:57.897Z,58.18
2023-03-26T03:05:06.594Z,55.95
2023-03-26T03:08:13.482Z,58.49
2023-03-26T03:11:28.698Z,60.55
2023-03-26T03:14:40.957Z,65.85
2023-03-26T03:17:41.637Z,65.62
2023-03-26T03:20:41.911Z,63.55
2023-03-26T03:24:00.511Z,61.71
2023-03-26T03:27:19.635Z,56.84
2023-03-26T03:30:34.602Z,57.90
2023-03-26T03:34:00.638Z,60.91
2023-03-26T03:37:07.818Z,65.59
2023-03-26T03:40:36.098Z,65.31
2023-03-26T03:43:50.251Z,63.31
2023-03-26T03:46:57.128Z,61.78
2023-03-26T03:50:25.934Z,56.79
2023-03-26T03:53:44.063Z,57.30
2023-03-26T03:56:39.901Z,58.80
2023-03-26T04:00:07.448Z,63.29
2023-03-26T04:03:18.792Z,63.95
2023-03-26T04:06:40.561Z,62.10
2023-03-26T04:10:05.576Z,56.48
2023-03-26T04:13:43.314Z,55.06
2023-03-26T04:17:16.774Z,57.66
2023-03-26T04:20:57.034Z,58.97
2023-03-26T04:24:03.293Z,59.33
2023-03-26T04:27:34.860Z,65.39
2023-03-26T04:30:48.285Z,64.61
2023-03-26T04:34:20.359Z,57.68
2023-03-26T04:38:02.253Z,55.42
2023-03-26T04:41:38.420Z,56.32
2023-03-26T04:44:45.613Z,57.82
2023-03-26T04:47:56.000Z,58.95
2023-03-26T04:50:47.281Z,59.99
2023-03-26T04:54:06.550Z,64.99
2023-03-26T04:57:25.524Z,65.62
2023-03-26T05:00:49.855Z,58.24
2023-03-26T05:03:59.794Z,55.52
2023-03-26T05:07:11.448Z,55.81
2023-03-26T05:10:44.944Z,56.74
2023-03-26T05:14:04.733Z,58.20
2023-03-26T05:16:45.007Z,59.66
2023-03-26T05:19:25.369Z,63.75
2023-03-26T05:22:23.136Z,63.70
2023-03-26T05:25:26.223Z,64.07
2023-03-26T05:28:14.742Z,58.28
2023-03-26T05:31:21.467Z,55.33
2023-03-26T05:34:00.563Z,56.49
2023-03-26T05:36:48.687Z,57.94
2023-03-26T05:39:58.385Z,57.76
2023-03-26T05:43:04.393Z,60.25
2023-03-26T05:45:52.863Z,64.64
2023-03-26T05:48:31.671Z,65.19
2023-03-26T05:51:23.719Z,63.92
2023-03-26T05:54:24.746Z,58.01
2023-03-26T05:57:19.837Z,55.94
2023-03-26T06:00:24.330Z,57.80
2023-03-26T06:03:16.646Z,58.85
2023-03-26T06:06:15.736Z,59.84
2023-03-26T06:09:02.015Z,63.79
2023-03-26T06:11:47.265Z,64.49
2023-03-26T06:14:23.939Z,62.12
2023-03-26T06:17:24.161Z,58.15
2023-03-26T06:20:38.520Z,56.03
2023-03-26T06:23:32.595Z,56.94
2023-03-26T06:26:57.095Z,57.70
2023-03-26T06:30:02.638Z,59.19
2023-03-26T06:33:00.470Z,61.52
2023-03-26T06:35:51.242Z,64.85
2023-03-26T06:38:31.366Z,64.34
2023-03-26T06:41:11.986Z,61.50
2023-03-26T06:43:47.468Z,58.14
2023-03-26T06:46:41.589Z,55.04
2023-03-26T06:49:36.207Z,55.45
2023-03-26T06:52:28.718Z,57.99
2023-03-26T06:55:14.642Z,59.34
2023-03-26T06:58:14.857Z,60.21
2023-03-26T07:01:12.380Z,61.36
2023-03-26T07:04:02.865Z,64.65
2023-03-26T07:06:53.448Z,65.36
2023-03-26T07:09:48.658Z,60.34
2023-03-26T07:13:02.086Z,56.27
2023-03-26T07:16:07.690Z,56.41
2023-03-26T07:19:14.106Z,57.66
2023-03-26T07:21:49.797Z,58.91
2023-03-26T07:24:54.582Z,58.91
2023-03-26T07:28:26.960Z,59.99
2023-03-26T07:31:28.959Z,59.97
2023-03-26T07:34:41.026Z,61.50
2023-03-26T07:38:13.099Z,64.38
2023-03-26T07:41:27.346Z,61.87
2023-03-26T07:44:54.807Z,56.93
2023-03-26T07:48:09.569Z,55.11
2023-03-26T07:51:18.698Z,55.88
2023-03-26T07:54:19.624Z,56.85
2023-03-26T07:57:28.628Z,57.59
2023-03-26T08:00:36.185Z,58.34
2023-03-26T08:03:38.539Z,58.36
2023-03-26T08:06:53.683Z,59.17
2023-03-26T08:10:44.267Z,59.48
2023-03-26T08:14:09.231Z,60.26
2023-03-26T08:16:56.006Z,60.31
2023-03-26T08:19:47.033Z,61.18
2023-03-26T08:22:51.560Z,60.85
2023-03-26T08:25:50.654Z,61.16
2023-03-26T08:28:43.605Z,61.41
2023-03-26T08:31:21.235Z,61.12
2023-03-26T08:33:59.713Z,61.27
2023-03-26T08:36:43.865Z,61.31
2023-03-26T08:39:35.175Z,61.23
2023-03-26T08:42:30.377Z,60.68
2023-03-26T08:45:31.527Z,60.79
2023-03-26T08:48:48.236Z,60.78
2023-03-26T08:51:40.593Z,61.16
2023-03-26T08:55:04.593Z,65.66
2023-03-26T08:58:13.378Z,66.30
2023-03-26T09:01:34.020Z,59.19
2023-03-26T09:04:43.007Z,56.78
2023-03-26T09:07:42.213Z,57.85
2023-03-26T09:11:03.477Z,58.32
2023-03-26T09:14:23.632Z,59.23
2023-03-26T09:17:14.517Z,59.61
2023-03-26T09:20:06.449Z,60.69
2023-03-26T09:22:50.293Z,60.93
2023-03-26T09:25:29.531Z,64.85
2023-03-26T09:28:13.054Z,66.25
2023-03-26T09:31:03.045Z,57.24
2023-03-26T09:34:02.030Z,53.63
2023-03-26T09:37:06.159Z,52.48
2023-03-26T09:40:02.224Z,52.23
2023-03-26T09:42:43.251Z,52.44
2023-03-26T09:45:22.686Z,52.48
2023-03-26T09:48:33.557Z,51.32
2023-03-26T09:51:30.100Z,51.35
2023-03-26T09:54:13.677Z,52.24
2023-03-26T09:57:14.217Z,52.28
2023-03-26T10:00:23.698Z,50.61
2023-03-26T10:03:13.417Z,51.16
2023-03-26T10:05:52.915Z,51.47
2023-03-26T10:08:46.069Z,52.17
2023-03-26T10:11:27.042Z,52.62
2023-03-26T10:14:36.890Z,52.61
2023-03-26T10:17:26.985Z,52.92
2023-03-26T10:20:09.859Z,53.28
2023-03-26T10:23:26.501Z,53.89
2023-03-26T10:26:29.495Z,54.31
2023-03-26T10:29:26.135Z,54.47
2023-03-26T10:32:51.449Z,54.27
2023-03-26T10:35:45.836Z,54.01
2023-03-26T10:38:50.877Z,53.92
2023-03-26T10:41:33.789Z,53.29
2023-03-26T10:45:01.134Z,52.98
2023-03-26T10:48:01.367Z,52.66
2023-03-26T10:50:56.342Z,52.02
2023-03-26T10:53:53.926Z,51.41
2023-03-26T10:57:11.788Z,50.60
2023-03-26T10:59:45.866Z,50.78
2023-03-26T11:02:48.482Z,50.89
2023-03-26T11:05:43.060Z,50.87
2023-03-26T11:08:41.549Z,50.80
2023-03-26T11:12:03.772Z,50.82
2023-03-26T11:15:17.916Z,49.66
2023-03-26T11:18:00.883Z,50.04
2023-03-26T11:20:42.253Z,49.47
2023-03-26T11:24:05.139Z,48.93
2023-03-26T11:26:44.299Z,48.44
2023-03-26T11:29:39.917Z,45.70
2023-03-26T11:32:27.702Z,45.77
2023-03-26T11:35:40.748Z,43.43
2023-03-26T11:38:37.716Z,43.60
2023-03-26T11:41:22.855Z,44.02
2023-03-26T11:44:04.055Z,45.08
2023-03-26T11:46:43.866Z,44.86
2023-03-26T11:49:20.482Z,43.97
2023-03-26T11:51:54.594Z,44.51
2023-03-26T11:54:26.554Z,45.69
2023-03-26T11:57:11.844Z,44.66
2023-03-26T11:59:56.428Z,42.10
2023-03-26T12:02:39.069Z,42.71
2023-03-26T12:05:36.852Z,43.31
2023-03-26T12:08:28.803Z,43.72
2023-03-26T12:11:10.860Z,44.09
2023-03-26T12:14:02.305Z,44.48
2023-03-26T12:16:37.461Z,45.23
2023-03-26T12:19:27.322Z,45.87
2023-03-26T12:22:01.117Z,46.11
2023-03-26T12:25:09.938Z,46.48
2023-03-26T12:27:49.793Z,46.19
2023-03-26T12:30:35.371Z,44.92
2023-03-26T12:33:34.518Z,45.56
2023-03-26T12:36:33.632Z,45.22
2023-03-26T12:40:09.913Z,45.38
2023-03-26T12:44:53.672Z,45.44
2023-03-26T12:45:40.841Z,45.80
2023-03-26T12:48:14.266Z,43.90
2023-03-26T12:50:51.980Z,42.95
2023-03-26T12:53:30.289Z,41.71
2023-03-26T12:56:12.342Z,41.37
2023-03-26T12:58:57.976Z,41.50
2023-03-26T13:01:53.063Z,41.59
2023-03-26T13:04:40.087Z,41.48
2023-03-26T13:07:38.465Z,41.74
2023-03-26T13:10:25.086Z,41.57
2023-03-26T13:13:18.131Z,41.72
2023-03-26T13:15:52.783Z,40.96
2023-03-26T13:18:37.933Z,40.46
2023-03-26T13:21:18.586Z,40.19
2023-03-26T13:24:08.470Z,39.61
2023-03-26T13:26:58.247Z,39.54
2023-03-26T13:29:43.534Z,40.39
2023-03-26T13:32:40.180Z,40.78
2023-03-26T13:35:24.598Z,40.74
2023-03-26T13:38:15.944Z,40.87
2023-03-26T13:41:05.443Z,41.38
2023-03-26T13:43:44.530Z,42.67
2023-03-26T13:46:46.288Z,42.51
2023-03-26T13:49:29.926Z,42.83
2023-03-26T13:52:22.979Z,43.31
2023-03-26T13:55:07.330Z,43.63
2023-03-26T13:57:49.223Z,44.06
2023-03-26T14:00:27.161Z,44.65
2023-03-26T14:03:11.266Z,45.22
2023-03-26T14:05:51.526Z,45.63
2023-03-26T14:08:33.058Z,46.07
2023-03-26T14:11:27.964Z,46.38
2023-03-26T14:14:04.050Z,46.42
2023-03-26T14:17:00.127Z,46.33
2023-03-26T14:19:53.350Z,46.51
2023-03-26T14:22:43.333Z,46.83
2023-03-26T14:25:20.204Z,47.08
2023-03-26T14:28:39.069Z,46.72
2023-03-26T14:31:36.250Z,46.92
2023-03-26T14:34:41.358Z,47.13
2023-03-26T14:37:51.004Z,47.33
2023-03-26T14:40:54.939Z,47.38
2023-03-26T14:43:49.913Z,47.84
2023-03-26T14:46:42.728Z,48.25
2023-03-26T14:50:09.317Z,48.59
2023-03-26T14:53:03.636Z,48.99
2023-03-26T14:55:43.946Z,49.00
2023-03-26T14:58:59.021Z,49.10
2023-03-26T15:02:32.813Z,49.49
2023-03-26T15:05:33.155Z,49.95
2023-03-26T15:08:34.434Z,50.08
2023-03-26T15:11:49.685Z,50.10
2023-03-26T15:15:15.106Z,50.52
2023-03-26T15:18:02.823Z,50.84
2023-03-26T15:20:49.528Z,51.93
2023-03-26T15:24:17.634Z,51.82
2023-03-26T15:27:18.878Z,51.98
2023-03-26T15:30:27.072Z,52.21
2023-03-26T15:33:35.373Z,52.24
2023-03-26T15:36:16.960Z,52.08
2023-03-26T15:39:25.169Z,52.36
2023-03-26T15:42:46.283Z,52.20
2023-03-26T15:46:01.388Z,52.15
2023-03-26T15:49:16.842Z,52.29
2023-03-26T15:52:13.269Z,52.30
2023-03-26T15:55:04.469Z,52.15
2023-03-26T15:57:47.706Z,51.90
2023-03-26T16:00:30.913Z,51.42
2023-03-26T16:03:36.175Z,51.06
2023-03-26T16:06:36.292Z,51.06
2023-03-26T16:09:29.349Z,51.09
2023-03-26T16:12:17.999Z,51.25
2023-03-26T16:15:11.876Z,51.10
2023-03-26T16:18:19.776Z,51.38
2023-03-26T16:21:31.285Z,51.21
2023-03-26T16:24:16.826Z,51.33
2023-03-26T16:27:03.043Z,51.96
2023-03-26T16:30:20.154Z,52.25
2023-03-26T16:33:09.221Z,52.46
2023-03-26T16:36:11.332Z,53.30
2023-03-26T16:39:06.291Z,53.63
2023-03-26T16:42:08.970Z,54.48
2023-03-26T16:45:18.615Z,55.39
2023-03-26T16:48:30.513Z,55.86
2023-03-26T16:51:56.032Z,56.42
2023-03-26T16:55:06.812Z,56.70
2023-03-26T16:58:23.712Z,56.64
2023-03-26T17:01:43.298Z,57.59
2023-03-26T17:04:34.707Z,58.84
2023-03-26T17:07:40.052Z,60.23
2023-03-26T17:11:13.654Z,64.97
2023-03-26T17:14:35.584Z,70.54
2023-03-26T17:17:56.982Z,68.35
2023-03-26T17:20:52.005Z,63.18
2023-03-26T17:24:15.241Z,56.99
2023-03-26T17:27:37.000Z,53.08
2023-03-26T17:34:36.219Z,53.12
2023-03-26T17:37:55.081Z,53.59
2023-03-26T17:51:08.199Z,58.26
2023-03-26T17:53:59.481Z,64.69
2023-03-26T17:56:53.993Z,69.04
2023-03-26T17:59:51.327Z,68.38
2023-03-26T18:02:54.658Z,66.69
2023-03-26T18:05:46.449Z,60.39
2023-03-26T18:09:12.175Z,55.71
2023-03-26T18:12:30.520Z,54.75
2023-03-26T18:16:02.022Z,54.81
2023-03-26T18:19:03.735Z,55.66
2023-03-26T18:22:15.577Z,56.84
2023-03-26T18:25:17.800Z,58.12
2023-03-26T18:28:26.990Z,59.11
2023-03-26T18:31:40.696Z,65.19
2023-03-26T18:34:57.277Z,70.73
2023-03-26T18:38:05.084Z,68.68
2023-03-26T18:41:24.974Z,66.56
2023-03-26T18:44:36.661Z,60.04
2023-03-26T18:47:31.745Z,55.64
2023-03-26T18:50:43.654Z,55.22
2023-03-26T18:54:01.695Z,55.64
2023-03-26T18:57:05.561Z,56.35
2023-03-26T19:00:14.736Z,57.47
2023-03-26T19:03:26.179Z,58.61
2023-03-26T19:06:31.565Z,64.74
2023-03-26T19:09:38.957Z,68.66
2023-03-26T19:12:48.190Z,67.84
2023-03-26T19:16:06.335Z,66.15
2023-03-26T19:19:23.155Z,59.57
2023-03-26T19:22:33.305Z,55.24
2023-03-26T19:26:09.984Z,55.28
2023-03-26T19:29:24.646Z,56.07
2023-03-26T19:32:53.272Z,57.28
2023-03-26T19:36:22.481Z,58.14
2023-03-26T19:39:37.098Z,64.67
2023-03-26T19:43:06.189Z,63.99
2023-03-26T19:46:15.454Z,62.28
2023-03-26T19:49:27.200Z,57.97
2023-03-26T19:53:00.657Z,54.87
2023-03-26T19:56:21.435Z,54.70
2023-03-26T19:59:24.834Z,56.38
2023-03-26T20:02:38.125Z,57.23
2023-03-26T20:06:12.896Z,58.10
2023-03-26T20:09:24.488Z,58.65
2023-03-26T20:12:30.036Z,65.29
2023-03-26T20:15:25.662Z,67.90
2023-03-26T20:18:36.931Z,66.15
2023-03-26T20:21:42.705Z,59.96
2023-03-26T20:25:31.161Z,55.78
2023-03-26T20:28:27.067Z,55.99
2023-03-26T20:31:32.366Z,57.73
2023-03-26T20:34:40.311Z,59.56
2023-03-26T20:37:45.339Z,60.98
2023-03-26T20:40:49.662Z,66.36
2023-03-26T20:44:16.917Z,66.58
2023-03-26T20:47:26.574Z,64.12
2023-03-26T20:51:15.709Z,57.15
2023-03-26T20:54:39.200Z,56.04
2023-03-26T20:58:01.234Z,56.15
2023-03-26T21:01:07.933Z,58.02
2023-03-26T21:04:22.669Z,59.30
2023-03-26T21:08:04.526Z,65.26
2023-03-26T21:11:02.750Z,67.44
2023-03-26T21:14:28.874Z,66.68
2023-03-26T21:17:29.080Z,64.81
2023-03-26T21:20:47.443Z,58.24
2023-03-26T21:24:08.151Z,54.72
2023-03-26T21:27:19.632Z,54.81
2023-03-26T21:30:24.365Z,55.75
2023-03-26T21:33:37.390Z,57.11
2023-03-26T21:36:49.684Z,58.07
2023-03-26T21:40:12.242Z,64.84
2023-03-26T21:43:15.738Z,68.87
2023-03-26T21:46:21.715Z,67.19
2023-03-26T21:49:32.571Z,65.51
2023-03-26T21:52:39.656Z,59.39
2023-03-26T21:55:42.643Z,54.94
2023-03-26T21:59:28.333Z,54.51
2023-03-26T22:02:48.513Z,55.87
2023-03-26T22:06:19.569Z,56.78
2023-03-26T22:09:45.702Z,57.56
2023-03-26T22:12:53.196Z,64.54
2023-03-26T22:15:57.756Z,68.74
2023-03-26T22:19:12.853Z,67.11
2023-03-26T22:22:21.926Z,65.42
2023-03-26T22:25:16.206Z,58.79
2023-03-26T22:28:46.923Z,54.82
2023-03-26T22:31:46.814Z,54.79
2023-03-26T22:34:55.381Z,55.72
2023-03-26T22:38:01.274Z,57.03
2023-03-26T22:41:11.191Z,59.09
2023-03-26T22:47:22.676Z,69.26
2023-03-26T22:50:45.138Z,66.80
2023-03-26T22:54:08.403Z,66.03
2023-03-26T22:57:11.316Z,64.23
2023-03-26T23:00:28.196Z,63.18
2023-03-26T23:03:43.805Z,57.75
2023-03-26T23:07:22.308Z,55.73
2023-03-26T23:11:11.477Z,57.67
2023-03-26T23:15:00.644Z,66.96
2023-03-26T23:18:49.744Z,69.03
2023-03-26T23:22:27.219Z,67.69
2023-03-26T23:26:05.700Z,66.69
2023-03-26T23:29:54.819Z,65.57
2023-03-26T23:33:32.603Z,64.62
2023-03-26T23:37:21.716Z,63.76
2023-03-26T23:41:13.812Z,63.26
2023-03-26T23:45:02.883Z,62.60
2023-03-26T23:48:51.086Z,56.80
2023-03-26T23:52:40.356Z,54.95
2023-03-26T23:56:27.934Z,56.47
